Time;durP1;ratioP1;P1;durP2;ratioP2;P2;SDS_P1;SDS_P2;PMS_P1;PMS_P2;Temp;Humidity;BMP_temperature;BMP_pressure;BME280_temperature;BME280_humidity;BME280_pressure;Samples;Min_cycle;Max_cycle;Signal;HPM_P1;HPM_P2
2022/09/15 00:01:25;;;;;;;6.05;2.20;;;13.70;99.90;;;;;;5134966;27;20118;-89
2022/09/15 00:03:51;;;;;;;7.22;2.30;;;13.60;99.90;;;;;;5135609;27;20069;-90
2022/09/15 00:06:17;;;;;;;7.05;2.45;;;13.50;99.90;;;;;;5136881;27;20377;-89
2022/09/15 00:08:43;;;;;;;5.68;1.80;;;13.40;99.90;;;;;;5136908;27;20038;-89
2022/09/15 00:11:14;;;;;;;8.18;2.72;;;13.40;99.90;;;;;;5136080;27;20420;-89
2022/09/15 00:13:40;;;;;;;7.65;2.85;;;13.40;99.90;;;;;;5119701;27;20050;-89
2022/09/15 00:16:07;;;;;;;4.65;2.05;;;13.40;99.90;;;;;;5119733;27;20039;-89
2022/09/15 00:18:34;;;;;;;4.35;1.85;;;13.30;99.90;;;;;;5136731;27;20046;-89
2022/09/15 00:21:08;;;;;;;6.00;1.83;;;13.20;99.90;;;;;;5119449;27;20387;-89
2022/09/15 00:23:33;;;;;;;7.40;2.72;;;13.20;99.90;;;;;;5119362;27;20503;-89
2022/09/15 00:26:00;;;;;;;5.25;2.35;;;13.30;99.90;;;;;;5136360;27;20087;-89
2022/09/15 00:28:26;;;;;;;6.50;2.47;;;13.30;99.90;;;;;;5136377;27;20031;-90
2022/09/15 00:30:53;;;;;;;6.75;2.53;;;13.20;99.90;;;;;;5119300;27;20087;-90
2022/09/15 00:33:20;;;;;;;6.85;1.80;;;13.30;99.90;;;;;;5136266;27;20081;-89
2022/09/15 00:35:47;;;;;;;5.82;2.17;;;13.20;99.90;;;;;;5136519;27;20038;-89
2022/09/15 00:38:14;;;;;;;5.28;2.22;;;13.20;99.90;;;;;;5136110;27;20489;-89
2022/09/15 00:40:45;;;;;;;6.30;2.00;;;13.30;99.90;;;;;;5136358;27;20138;-89
2022/09/15 00:43:12;;;;;;;5.38;1.77;;;13.20;99.90;;;;;;5119026;27;20412;-89
2022/09/15 00:45:37;;;;;;;6.97;2.97;;;13.20;99.90;;;;;;5136333;27;20092;-89
2022/09/15 00:48:07;;;;;;;7.30;2.47;;;13.30;99.90;;;;;;5136044;27;20513;-89
2022/09/15 00:50:34;;;;;;;10.70;3.08;;;13.30;99.90;;;;;;5135953;27;20042;-89
2022/09/15 00:53:04;;;;;;;7.78;3.00;;;13.30;99.90;;;;;;5135551;27;20085;-89
2022/09/15 00:55:36;;;;;;;5.65;2.20;;;13.30;99.90;;;;;;5135819;27;20598;-88
2022/09/15 00:58:05;;;;;;;6.47;2.00;;;13.30;99.90;;;;;;5119025;27;20112;-89
2022/09/15 01:00:32;;;;;;;7.45;3.10;;;13.30;99.90;;;;;;5135765;27;20434;-90
2022/09/15 01:02:59;;;;;;;6.30;2.15;;;13.30;99.90;;;;;;5135509;27;20038;-89
2022/09/15 01:05:29;;;;;;;6.93;2.42;;;13.30;99.90;;;;;;5135909;27;20050;-89
2022/09/15 01:08:12;;;;;;;7.35;3.13;;;13.30;99.90;;;;;;5135880;27;20404;-89
2022/09/15 01:10:40;;;;;;;5.60;2.50;;;13.30;99.90;;;;;;5135947;27;20050;-89
2022/09/15 01:13:08;;;;;;;6.95;2.75;;;13.30;99.90;;;;;;5135323;27;20121;-89
2022/09/15 01:15:52;;;;;;;8.60;3.90;;;13.30;99.90;;;;;;5135547;27;20045;-89
2022/09/15 01:18:38;;;;;;;6.70;2.95;;;13.40;99.90;;;;;;5118387;27;20522;-89
2022/09/15 01:21:20;;;;;;;7.85;3.08;;;13.30;99.90;;;;;;5118320;27;20499;-89
2022/09/15 01:24:07;;;;;;;10.82;4.63;;;13.30;99.90;;;;;;5135325;27;20042;-89
2022/09/15 01:26:46;;;;;;;8.43;4.78;;;13.40;99.90;;;;;;5135593;27;20038;-89
2022/09/15 01:29:56;;;;;;;8.55;3.78;;;13.50;99.90;;;;;;5135125;27;20034;-89
2022/09/15 01:35:21;;;;;;;8.15;3.35;;;13.60;99.90;;;;;;5135180;27;20047;-89
2022/09/15 01:37:59;;;;;;;9.07;4.07;;;13.70;99.90;;;;;;5135144;27;20038;-90
2022/09/15 01:40:31;;;;;;;8.35;5.10;;;13.70;99.90;;;;;;5135270;27;20042;-88
2022/09/15 01:42:59;;;;;;;7.75;3.45;;;13.80;99.90;;;;;;5117642;27;20149;-89
2022/09/15 01:45:29;;;;;;;7.90;5.03;;;13.80;99.90;;;;;;5117888;27;20038;-89
2022/09/15 01:47:57;;;;;;;8.57;3.42;;;13.90;99.90;;;;;;5117981;27;20041;-89
2022/09/15 01:50:30;;;;;;;9.13;4.95;;;13.90;99.90;;;;;;5134999;27;20066;-89
2022/09/15 01:52:59;;;;;;;8.40;3.50;;;13.90;99.90;;;;;;5134600;27;20049;-90
2022/09/15 01:55:52;;;;;;;10.07;4.43;;;13.90;99.90;;;;;;5134894;27;20070;-89
2022/09/15 01:58:19;;;;;;;7.00;3.00;;;14.00;99.90;;;;;;5135162;27;20443;-90
2022/09/15 02:00:50;;;;;;;7.90;4.22;;;14.00;99.90;;;;;;5134724;27;20038;-89
2022/09/15 02:03:32;;;;;;;11.50;3.95;;;14.00;99.90;;;;;;5134756;27;20043;-89
2022/09/15 02:06:02;;;;;;;8.53;3.10;;;14.00;99.90;;;;;;5134251;27;20035;-89
2022/09/15 02:08:36;;;;;;;10.85;3.78;;;14.00;99.90;;;;;;5117618;27;20041;-89
2022/09/15 02:11:10;;;;;;;9.57;4.10;;;14.00;99.90;;;;;;5134579;27;20062;-89
2022/09/15 02:13:56;;;;;;;9.48;4.50;;;14.10;99.90;;;;;;5117665;27;20046;-89
2022/09/15 02:16:24;;;;;;;11.70;4.53;;;14.10;99.90;;;;;;5134643;27;20086;-89
2022/09/15 02:18:50;;;;;;;11.35;4.80;;;14.10;99.90;;;;;;5117670;27;20039;-89
2022/09/15 02:21:28;;;;;;;9.70;3.47;;;14.20;99.90;;;;;;5134299;27;20046;-89
2022/09/15 02:24:02;;;;;;;8.88;4.35;;;14.10;99.90;;;;;;5134741;27;20039;-89
2022/09/15 02:26:31;;;;;;;7.90;3.08;;;14.10;99.90;;;;;;5134391;27;20548;-89
2022/09/15 02:29:01;;;;;;;10.93;4.93;;;14.10;99.90;;;;;;5134485;27;20087;-89
2022/09/15 02:31:28;;;;;;;12.13;5.07;;;14.10;99.90;;;;;;5134218;27;20547;-88
2022/09/15 02:33:59;;;;;;;9.88;4.00;;;14.20;99.90;;;;;;5153279;27;20031;-89
2022/09/15 02:36:27;;;;;;;9.02;4.85;;;14.10;99.90;;;;;;5152983;27;20035;-89
2022/09/15 02:38:58;;;;;;;10.32;3.90;;;14.10;99.90;;;;;;5134697;27;20106;-89
2022/09/15 02:41:23;;;;;;;8.50;5.00;;;14.10;99.90;;;;;;5152664;27;20041;-89
2022/09/15 02:43:49;;;;;;;8.70;4.15;;;14.10;99.90;;;;;;5134353;27;20035;-89
2022/09/15 02:46:18;;;;;;;8.68;4.47;;;14.10;99.90;;;;;;5134379;27;20050;-89
2022/09/15 02:48:44;;;;;;;10.10;4.75;;;14.20;99.90;;;;;;5134569;27;20388;-89
2022/09/15 02:51:09;;;;;;;8.57;4.88;;;14.20;99.90;;;;;;5134050;27;20042;-89
2022/09/15 02:53:35;;;;;;;9.05;3.67;;;14.20;99.90;;;;;;5134171;27;20121;-89
2022/09/15 02:56:05;;;;;;;10.68;4.80;;;14.10;99.90;;;;;;5134309;27;20042;-89
2022/09/15 02:58:32;;;;;;;10.15;5.10;;;14.10;99.90;;;;;;5134647;27;20039;-89
2022/09/15 03:00:59;;;;;;;9.07;5.00;;;14.10;99.90;;;;;;5134049;27;20078;-89
2022/09/15 03:03:25;;;;;;;7.80;3.70;;;14.10;99.90;;;;;;5134278;27;20527;-89
2022/09/15 03:05:51;;;;;;;10.85;5.13;;;14.00;99.90;;;;;;5134055;27;20081;-89
2022/09/15 03:08:16;;;;;;;10.38;3.00;;;14.00;99.90;;;;;;5117070;27;20122;-89
2022/09/15 03:10:42;;;;;;;12.20;4.18;;;14.00;99.90;;;;;;5134145;27;20031;-89
2022/09/15 03:13:07;;;;;;;11.20;3.50;;;14.00;99.90;;;;;;5134063;27;20300;-89
2022/09/15 03:15:33;;;;;;;7.72;2.75;;;14.00;99.90;;;;;;5134085;27;20437;-89
2022/09/15 03:18:00;;;;;;;11.77;4.45;;;14.10;99.90;;;;;;5135956;27;20482;-89
2022/09/15 03:20:27;;;;;;;10.13;4.13;;;14.10;99.90;;;;;;5137766;27;20130;-89
2022/09/15 03:22:53;;;;;;;8.45;2.47;;;14.10;99.90;;;;;;5137176;27;20043;-89
2022/09/15 03:25:19;;;;;;;8.88;2.13;;;14.10;99.90;;;;;;5120593;27;20026;-90
2022/09/15 03:27:45;;;;;;;9.35;2.65;;;14.10;99.90;;;;;;5137535;27;20087;-89
2022/09/15 03:30:12;;;;;;;5.63;1.88;;;14.10;99.90;;;;;;5137544;27;20403;-89
2022/09/15 03:32:38;;;;;;;10.88;2.63;;;14.10;99.90;;;;;;5137100;27;20046;-89
2022/09/15 03:35:05;;;;;;;8.80;2.13;;;14.10;99.90;;;;;;5138276;27;20030;-88
2022/09/15 03:37:31;;;;;;;10.45;1.70;;;14.20;99.90;;;;;;5137578;27;20042;-89
2022/09/15 03:39:57;;;;;;;6.78;1.50;;;14.20;99.90;;;;;;5120386;27;20042;-89
2022/09/15 03:42:22;;;;;;;9.30;1.95;;;14.20;99.90;;;;;;5137161;27;20038;-89
2022/09/15 03:44:48;;;;;;;6.13;1.75;;;14.20;99.90;;;;;;5137676;27;20030;-89
2022/09/15 03:47:13;;;;;;;7.38;1.92;;;14.30;99.90;;;;;;5120148;27;20549;-89
2022/09/15 03:49:39;;;;;;;10.27;2.05;;;14.30;99.90;;;;;;5137210;27;20433;-89
2022/09/15 03:52:04;;;;;;;6.85;1.50;;;14.30;99.90;;;;;;5136769;27;20066;-89
2022/09/15 03:54:30;;;;;;;7.43;1.80;;;14.30;99.90;;;;;;5120119;27;20038;-89
2022/09/15 03:56:56;;;;;;;8.18;2.15;;;14.30;99.90;;;;;;5155693;27;20045;-89
2022/09/15 03:59:22;;;;;;;6.53;1.88;;;14.40;99.90;;;;;;5155811;27;20077;-89
2022/09/15 04:01:48;;;;;;;6.03;1.50;;;14.40;99.90;;;;;;5136626;27;20057;-89
2022/09/15 04:04:14;;;;;;;7.97;1.83;;;14.40;99.90;;;;;;5136967;27;20145;-89
2022/09/15 04:06:40;;;;;;;9.35;1.55;;;14.40;99.90;;;;;;5119562;27;20047;-89
2022/09/15 04:09:06;;;;;;;12.00;2.22;;;14.30;99.90;;;;;;5136960;27;20070;-89
2022/09/15 04:11:32;;;;;;;9.00;1.65;;;14.40;99.90;;;;;;5136755;27;20046;-89
2022/09/15 04:13:57;;;;;;;7.43;1.88;;;14.40;99.90;;;;;;5119919;27;20456;-89
2022/09/15 04:16:24;;;;;;;7.63;1.40;;;14.40;99.90;;;;;;5136711;27;20137;-89
2022/09/15 04:18:51;;;;;;;8.50;2.05;;;14.30;99.90;;;;;;5136657;27;20041;-89
2022/09/15 04:21:20;;;;;;;9.15;2.00;;;14.40;99.90;;;;;;5136497;27;20138;-89
2022/09/15 04:23:47;;;;;;;9.95;1.42;;;14.40;99.90;;;;;;5119356;27;20049;-89
2022/09/15 04:26:30;;;;;;;8.38;1.70;;;14.30;99.90;;;;;;5136562;27;20041;-89
2022/09/15 04:28:56;;;;;;;6.82;1.98;;;14.30;99.90;;;;;;5135911;27;20535;-89
2022/09/15 04:31:22;;;;;;;7.90;2.10;;;14.20;99.90;;;;;;5119324;27;20487;-89
2022/09/15 04:33:51;;;;;;;7.93;2.00;;;14.20;99.90;;;;;;5136317;27;20053;-89
2022/09/15 04:36:19;;;;;;;8.07;1.80;;;14.20;99.90;;;;;;5136220;27;20043;-89
2022/09/15 04:38:46;;;;;;;8.63;2.00;;;14.10;99.90;;;;;;5136600;27;20127;-89
2022/09/15 04:41:13;;;;;;;6.25;1.92;;;14.10;99.90;;;;;;5135846;27;20083;-89
2022/09/15 04:43:39;;;;;;;9.23;2.90;;;14.10;99.90;;;;;;5136267;27;20515;-90
2022/09/15 04:46:05;;;;;;;12.93;3.40;;;14.10;99.90;;;;;;5136026;27;20526;-90
2022/09/15 04:48:31;;;;;;;9.43;2.35;;;14.10;99.90;;;;;;5136444;27;20113;-90
2022/09/15 04:51:01;;;;;;;9.98;2.20;;;14.10;99.90;;;;;;5135979;27;20122;-90
2022/09/15 04:53:26;;;;;;;8.77;2.53;;;14.00;99.90;;;;;;5136017;27;20046;-90
2022/09/15 04:55:52;;;;;;;10.77;2.63;;;14.00;99.90;;;;;;5136256;27;20043;-90
2022/09/15 04:58:18;;;;;;;6.40;2.17;;;14.00;99.90;;;;;;5135858;27;20039;-91
2022/09/15 05:00:43;;;;;;;8.82;2.65;;;14.00;99.90;;;;;;5135388;27;20042;-90
2022/09/15 05:03:13;;;;;;;11.73;3.22;;;14.00;99.90;;;;;;5118366;27;20053;-90
2022/09/15 05:05:40;;;;;;;8.68;2.83;;;13.90;99.90;;;;;;5118648;27;20062;-90
2022/09/15 05:08:06;;;;;;;6.72;2.10;;;13.90;99.90;;;;;;5132806;27;20149;-89
2022/09/15 05:10:33;;;;;;;11.93;3.00;;;13.90;99.90;;;;;;5117438;27;20578;-90
2022/09/15 05:12:59;;;;;;;10.63;2.13;;;13.90;99.90;;;;;;5117171;27;20046;-90
2022/09/15 05:15:24;;;;;;;7.88;2.75;;;14.00;99.90;;;;;;5134529;27;20069;-90
2022/09/15 05:17:50;;;;;;;10.02;3.10;;;14.00;99.90;;;;;;5134365;27;20034;-90
2022/09/15 05:20:16;;;;;;;9.88;2.22;;;14.00;99.90;;;;;;5134645;27;20038;-90
2022/09/15 05:22:42;;;;;;;10.05;3.33;;;13.90;99.90;;;;;;5134448;27;20388;-90
2022/09/15 05:25:09;;;;;;;7.97;2.95;;;14.00;99.90;;;;;;5134760;27;20035;-90
2022/09/15 05:27:34;;;;;;;11.07;3.40;;;13.90;99.90;;;;;;5134534;27;20516;-90
2022/09/15 05:30:00;;;;;;;7.93;2.45;;;14.00;99.90;;;;;;5134635;27;20031;-90
2022/09/15 05:32:25;;;;;;;9.80;3.20;;;13.90;99.90;;;;;;5117407;27;20535;-90
2022/09/15 05:34:51;;;;;;;7.75;2.35;;;13.90;99.90;;;;;;5117622;27;20488;-91
2022/09/15 05:37:17;;;;;;;10.00;2.92;;;13.90;99.90;;;;;;5153109;27;20049;-90
2022/09/15 05:39:42;;;;;;;12.50;3.20;;;13.90;99.90;;;;;;5151780;27;20050;-90
2022/09/15 05:42:08;;;;;;;8.98;3.05;;;14.00;99.90;;;;;;5134158;27;20038;-90
2022/09/15 05:44:34;;;;;;;8.18;1.95;;;14.00;99.90;;;;;;5134573;27;20041;-90
2022/09/15 05:46:59;;;;;;;9.20;1.77;;;14.00;99.90;;;;;;5134543;27;20144;-90
2022/09/15 05:49:25;;;;;;;9.05;2.00;;;14.00;99.90;;;;;;5134188;27;20031;-90
2022/09/15 05:51:50;;;;;;;7.65;1.80;;;14.10;99.90;;;;;;5152712;27;20163;-90
2022/09/15 05:54:16;;;;;;;7.55;1.40;;;14.10;99.90;;;;;;5117633;27;20121;-89
2022/09/15 05:56:42;;;;;;;7.30;1.80;;;14.10;99.90;;;;;;5134372;27;20030;-90
2022/09/15 05:59:07;;;;;;;8.77;1.67;;;14.20;99.90;;;;;;5152878;27;20043;-90
2022/09/15 06:01:34;;;;;;;10.13;2.00;;;14.20;99.90;;;;;;5152643;27;20110;-90
2022/09/15 06:03:59;;;;;;;7.50;1.45;;;14.20;99.90;;;;;;5134192;27;20027;-90
2022/09/15 06:06:25;;;;;;;7.15;1.65;;;14.20;99.90;;;;;;5117190;27;20045;-90
2022/09/15 06:08:54;;;;;;;6.32;1.25;;;14.20;99.90;;;;;;5134153;27;20469;-90
2022/09/15 06:11:22;;;;;;;8.20;1.70;;;14.20;99.90;;;;;;5134253;27;20052;-90
2022/09/15 06:13:48;;;;;;;9.32;1.92;;;14.20;99.90;;;;;;5133190;27;20042;-91
2022/09/15 06:16:20;;;;;;;4.60;1.17;;;14.30;99.90;;;;;;5111819;27;20438;-91
2022/09/15 06:18:47;;;;;;;8.77;1.98;;;14.30;99.90;;;;;;5096434;28;20449;-90
2022/09/15 06:21:16;;;;;;;9.35;1.48;;;14.30;99.90;;;;;;5113725;28;20039;-90
2022/09/15 06:23:42;;;;;;;8.93;1.70;;;14.30;99.90;;;;;;5113419;28;20407;-90
2022/09/15 06:26:14;;;;;;;9.55;1.70;;;14.30;99.90;;;;;;5113472;28;20031;-90
2022/09/15 06:28:41;;;;;;;8.05;1.27;;;14.30;99.90;;;;;;5096577;28;20035;-90
2022/09/15 06:31:12;;;;;;;7.63;1.70;;;14.30;99.90;;;;;;5096011;28;20039;-90
2022/09/15 06:33:42;;;;;;;7.75;1.23;;;14.40;99.90;;;;;;5096982;28;20046;-90
2022/09/15 06:36:09;;;;;;;10.75;2.53;;;14.40;99.90;;;;;;5113773;28;20407;-91
2022/09/15 06:38:35;;;;;;;9.98;1.35;;;14.40;99.90;;;;;;5096329;28;20039;-90
2022/09/15 06:41:01;;;;;;;10.00;2.22;;;14.50;99.90;;;;;;5112593;28;20484;-90
2022/09/15 06:43:26;;;;;;;7.25;1.45;;;14.60;99.90;;;;;;5112991;28;20492;-90
2022/09/15 06:45:52;;;;;;;8.98;2.08;;;14.70;99.90;;;;;;5113630;28;20046;-90
2022/09/15 06:48:18;;;;;;;8.48;2.13;;;14.80;99.90;;;;;;5131915;28;20054;-90
2022/09/15 06:50:43;;;;;;;7.85;1.40;;;14.90;99.90;;;;;;5112980;27;20039;-91
2022/09/15 06:53:10;;;;;;;9.15;2.00;;;14.90;99.90;;;;;;5116810;27;20045;-90
2022/09/15 06:55:35;;;;;;;11.85;2.15;;;15.00;99.90;;;;;;5100133;27;20043;-90
2022/09/15 06:58:01;;;;;;;7.95;1.52;;;15.00;99.90;;;;;;5117380;27;20423;-90
2022/09/15 07:00:28;;;;;;;10.85;1.55;;;15.00;99.90;;;;;;5117042;27;20648;-90
2022/09/15 07:02:53;;;;;;;8.70;1.90;;;15.00;99.90;;;;;;5116730;27;20439;-90
2022/09/15 07:05:19;;;;;;;12.43;2.45;;;15.00;99.90;;;;;;5117175;27;20039;-90
2022/09/15 07:07:45;;;;;;;8.40;1.73;;;15.00;99.90;;;;;;5116764;27;20431;-90
2022/09/15 07:10:10;;;;;;;8.40;1.42;;;15.10;99.90;;;;;;5116769;27;20047;-90
2022/09/15 07:12:36;;;;;;;6.95;1.20;;;15.10;99.90;;;;;;5116592;27;20039;-90
2022/09/15 07:15:02;;;;;;;6.68;1.20;;;15.20;99.90;;;;;;5116937;27;20404;-90
2022/09/15 07:17:28;;;;;;;8.32;1.92;;;15.20;99.90;;;;;;5099392;27;20039;-90
2022/09/15 07:19:54;;;;;;;11.15;1.90;;;15.20;99.90;;;;;;5116880;27;20074;-90
2022/09/15 07:22:19;;;;;;;10.63;2.08;;;15.30;99.90;;;;;;5116199;27;20094;-91
2022/09/15 07:24:45;;;;;;;10.02;1.58;;;15.40;99.90;;;;;;5116298;27;20052;-91
2022/09/15 07:27:10;;;;;;;12.70;2.35;;;15.40;99.90;;;;;;5099796;27;20464;-90
2022/09/15 07:29:37;;;;;;;10.27;2.00;;;15.40;99.90;;;;;;5116316;27;20554;-91
2022/09/15 07:32:03;;;;;;;10.38;2.00;;;15.40;99.90;;;;;;5116213;27;20043;-90
2022/09/15 07:34:29;;;;;;;7.68;1.48;;;15.50;99.90;;;;;;5116696;27;20046;-90
2022/09/15 07:36:54;;;;;;;10.00;1.80;;;15.50;99.90;;;;;;5116186;27;20047;-90
2022/09/15 07:39:20;;;;;;;6.72;1.48;;;15.60;99.90;;;;;;5135100;27;20043;-91
2022/09/15 07:41:45;;;;;;;10.52;2.03;;;15.60;99.90;;;;;;5115334;27;20043;-89
2022/09/15 07:44:12;;;;;;;10.52;1.83;;;15.70;99.90;;;;;;5116178;27;20392;-90
2022/09/15 07:46:37;;;;;;;9.30;2.03;;;15.80;99.90;;;;;;5116058;27;20504;-90
2022/09/15 07:49:05;;;;;;;9.82;1.60;;;15.80;99.90;;;;;;5116088;27;20046;-90
2022/09/15 07:51:31;;;;;;;8.45;1.77;;;15.80;99.90;;;;;;5098231;27;20035;-90
2022/09/15 07:53:56;;;;;;;7.43;1.52;;;15.80;99.90;;;;;;5116200;27;20427;-91
2022/09/15 07:56:22;;;;;;;11.20;1.77;;;15.90;99.90;;;;;;5116866;27;20382;-90
2022/09/15 07:58:49;;;;;;;10.27;2.05;;;15.90;99.90;;;;;;5135059;27;20118;-90
2022/09/15 08:01:16;;;;;;;9.15;1.98;;;16.00;99.90;;;;;;5116283;27;20066;-90
2022/09/15 08:03:45;;;;;;;10.65;2.00;;;16.10;99.90;;;;;;5115649;27;20035;-90
2022/09/15 08:06:11;;;;;;;11.63;1.73;;;16.20;99.90;;;;;;5098955;27;20084;-90
2022/09/15 08:08:38;;;;;;;10.20;2.33;;;16.20;99.90;;;;;;5116460;27;20505;-90
2022/09/15 08:11:08;;;;;;;7.38;1.67;;;16.30;99.90;;;;;;5115994;27;20118;-91
2022/09/15 08:13:34;;;;;;;8.90;1.65;;;16.40;99.90;;;;;;5116411;27;20047;-90
2022/09/15 08:16:08;;;;;;;10.05;1.90;;;16.50;99.90;;;;;;5116252;27;20042;-90
2022/09/15 08:18:34;;;;;;;11.52;2.15;;;16.60;99.90;;;;;;5116287;27;20096;-89
2022/09/15 08:21:06;;;;;;;10.73;1.85;;;16.80;99.90;;;;;;5115831;27;20038;-90
2022/09/15 08:23:32;;;;;;;10.80;1.67;;;16.80;99.90;;;;;;5116090;27;20045;-90
2022/09/15 08:25:58;;;;;;;8.30;1.42;;;16.90;99.90;;;;;;5114004;27;20456;-90
2022/09/15 08:28:25;;;;;;;8.10;1.30;;;17.00;99.90;;;;;;5114815;27;20492;-90
2022/09/15 08:30:58;;;;;;;9.15;1.55;;;16.90;99.90;;;;;;5115105;27;20031;-90
2022/09/15 08:33:24;;;;;;;8.63;1.58;;;16.90;99.90;;;;;;5115359;27;20049;-90
2022/09/15 08:35:50;;;;;;;8.77;1.70;;;16.90;99.90;;;;;;5115180;27;20039;-90
2022/09/15 08:38:15;;;;;;;9.80;1.63;;;16.90;99.90;;;;;;5115367;27;20504;-90
2022/09/15 08:40:43;;;;;;;7.43;1.60;;;16.90;99.90;;;;;;5114891;27;20039;-91
2022/09/15 08:43:22;;;;;;;8.93;1.42;;;16.90;99.90;;;;;;5114870;27;20046;-90
2022/09/15 08:45:58;;;;;;;9.68;1.63;;;17.00;99.90;;;;;;5114721;27;20560;-90
2022/09/15 08:48:30;;;;;;;8.57;1.67;;;17.10;99.90;;;;;;5114432;27;20039;-90
2022/09/15 08:50:58;;;;;;;7.53;1.50;;;17.30;99.90;;;;;;5114533;27;20500;-90
2022/09/15 08:53:33;;;;;;;8.93;1.60;;;17.30;99.90;;;;;;5115558;27;20046;-91
2022/09/15 08:56:03;;;;;;;8.10;1.80;;;17.40;99.90;;;;;;5105895;27;20042;-90
2022/09/15 08:58:33;;;;;;;9.65;1.60;;;17.40;99.90;;;;;;5114021;27;20385;-90
2022/09/15 09:01:36;;;;;;;7.10;1.23;;;17.50;99.90;;;;;;5114263;27;20087;-90
2022/09/15 09:04:41;;;;;;;6.78;1.52;;;17.50;99.90;;;;;;5097596;27;20050;-90
2022/09/15 09:07:27;;;;;;;6.88;1.33;;;17.50;99.90;;;;;;5114334;27;20400;-90
2022/09/15 09:10:12;;;;;;;6.85;1.40;;;17.50;99.90;;;;;;5114491;27;20043;-90
2022/09/15 09:12:59;;;;;;;8.32;1.58;;;17.60;99.90;;;;;;5114343;27;20047;-90
2022/09/15 09:15:54;;;;;;;7.53;1.45;;;17.60;99.90;;;;;;5097715;27;20102;-90
2022/09/15 09:18:29;;;;;;;9.85;1.75;;;17.60;99.90;;;;;;5025372;27;20127;-90
2022/09/15 09:21:29;;;;;;;10.40;1.70;;;17.70;99.90;;;;;;5114134;27;20039;-91
2022/09/15 09:24:09;;;;;;;9.02;1.83;;;17.80;99.90;;;;;;5114593;27;20047;-91
2022/09/15 09:26:35;;;;;;;9.02;1.85;;;17.90;99.90;;;;;;5113880;27;20444;-89
2022/09/15 09:29:09;;;;;;;6.95;1.45;;;18.00;99.90;;;;;;5114057;27;20070;-90
2022/09/15 09:31:36;;;;;;;6.43;1.40;;;18.10;99.90;;;;;;5096883;27;20039;-90
2022/09/15 09:34:26;;;;;;;7.20;1.42;;;18.20;99.90;;;;;;5114280;27;20453;-91
2022/09/15 09:37:00;;;;;;;8.75;1.40;;;18.30;99.90;;;;;;5114206;27;20039;-91
2022/09/15 09:39:27;;;;;;;8.20;1.40;;;18.30;99.90;;;;;;5113997;27;20039;-90
2022/09/15 09:41:53;;;;;;;6.55;1.40;;;18.40;99.90;;;;;;5114009;27;20465;-91
2022/09/15 09:44:20;;;;;;;7.10;1.48;;;18.60;99.90;;;;;;5097238;27;20620;-90
2022/09/15 09:46:48;;;;;;;8.63;1.48;;;18.60;99.90;;;;;;5097053;27;20451;-90
2022/09/15 09:49:21;;;;;;;6.35;1.25;;;18.70;99.90;;;;;;5113856;27;20039;-90
2022/09/15 09:51:54;;;;;;;7.82;1.65;;;18.80;99.90;;;;;;5113570;27;20122;-91
2022/09/15 09:54:24;;;;;;;8.68;1.50;;;18.90;99.90;;;;;;5113767;27;20046;-91
2022/09/15 09:56:52;;;;;;;7.40;1.50;;;18.90;99.90;;;;;;5113358;28;20118;-90
2022/09/15 09:59:37;;;;;;;8.18;1.67;;;18.90;99.90;;;;;;5113711;28;20077;-90
2022/09/15 10:02:10;;;;;;;8.70;1.75;;;19.00;99.90;;;;;;5113346;27;20039;-90
2022/09/15 10:04:38;;;;;;;7.32;1.48;;;19.00;99.90;;;;;;5096764;28;20038;-90
2022/09/15 10:07:05;;;;;;;6.68;1.27;;;19.10;99.90;;;;;;5113792;28;20028;-91
2022/09/15 10:09:31;;;;;;;7.25;1.45;;;19.10;99.90;;;;;;5113506;28;20071;-91
2022/09/15 10:12:03;;;;;;;5.93;1.50;;;19.20;99.90;;;;;;5113803;28;20122;-91
2022/09/15 10:14:30;;;;;;;7.40;1.60;;;19.20;99.90;;;;;;5119179;27;20548;-91
2022/09/15 10:17:01;;;;;;;6.85;1.48;;;19.20;99.10;;;;;;5126195;28;20043;-90
2022/09/15 10:19:34;;;;;;;6.07;1.33;;;19.10;99.50;;;;;;5130560;28;20496;-91
2022/09/15 10:22:00;;;;;;;6.00;1.25;;;19.00;98.00;;;;;;5103969;28;20034;-90
2022/09/15 10:24:26;;;;;;;8.35;1.33;;;18.90;97.30;;;;;;5113618;28;20043;-90
2022/09/15 10:27:05;;;;;;;7.75;1.30;;;18.90;97.70;;;;;;5098225;27;20049;-91
2022/09/15 10:29:37;;;;;;;7.65;1.30;;;18.90;97.60;;;;;;5117369;27;20126;-91
2022/09/15 10:32:27;;;;;;;6.10;1.10;;;18.90;98.40;;;;;;5100739;27;20400;-90
2022/09/15 10:35:02;;;;;;;10.00;1.60;;;19.10;99.90;;;;;;5107753;27;20047;-90
2022/09/15 10:37:34;;;;;;;7.85;1.20;;;19.10;99.90;;;;;;5100259;27;20400;-90
2022/09/15 10:40:09;;;;;;;6.28;1.20;;;19.10;99.90;;;;;;5099879;27;20104;-90
2022/09/15 10:42:51;;;;;;;10.25;1.58;;;19.10;99.60;;;;;;5099727;27;20042;-90
2022/09/15 10:45:21;;;;;;;11.60;1.70;;;19.20;99.90;;;;;;5100514;27;20433;-91
2022/09/15 10:48:05;;;;;;;7.47;1.48;;;19.20;99.90;;;;;;5117002;27;20039;-91
2022/09/15 10:50:43;;;;;;;7.85;1.60;;;19.30;99.90;;;;;;5116455;27;20092;-90
2022/09/15 10:53:27;;;;;;;8.68;1.48;;;19.40;98.70;;;;;;5117114;27;20122;-91
2022/09/15 10:56:01;;;;;;;7.57;1.10;;;19.40;96.90;;;;;;5099984;27;20159;-90
2022/09/15 10:58:42;;;;;;;7.70;1.50;;;19.50;95.30;;;;;;5117094;27;20500;-90
2022/09/15 11:01:29;;;;;;;6.75;1.30;;;19.60;94.20;;;;;;5107933;27;20038;-91
2022/09/15 11:04:22;;;;;;;7.28;1.20;;;19.70;92.10;;;;;;5127343;27;20042;-90
2022/09/15 11:07:06;;;;;;;6.43;1.10;;;19.80;90.30;;;;;;5125786;27;20035;-91
2022/09/15 11:09:49;;;;;;;7.47;1.30;;;20.00;90.60;;;;;;5123541;27;20031;-90
2022/09/15 11:12:33;;;;;;;5.97;1.13;;;20.10;83.00;;;;;;5109894;27;20135;-91
2022/09/15 11:15:13;;;;;;;5.45;1.00;;;20.00;77.30;;;;;;5128628;27;20496;-90
2022/09/15 11:18:26;;;;;;;6.88;1.20;;;19.80;79.20;;;;;;5103162;27;20035;-91
2022/09/15 11:21:17;;;;;;;7.50;1.20;;;19.70;80.30;;;;;;5013116;28;20076;-90
2022/09/15 11:23:53;;;;;;;7.28;1.25;;;19.50;86.90;;;;;;5111640;27;20086;-91
2022/09/15 11:26:43;;;;;;;4.30;0.90;;;19.60;90.00;;;;;;5117264;27;20678;-90
2022/09/15 11:29:15;;;;;;;5.60;1.05;;;19.60;90.20;;;;;;5108521;27;20035;-90
2022/09/15 11:31:45;;;;;;;8.27;1.50;;;19.50;91.70;;;;;;5098548;27;20114;-91
2022/09/15 11:34:29;;;;;;;7.63;1.50;;;19.60;94.60;;;;;;5116974;27;20046;-90
2022/09/15 11:37:16;;;;;;;7.13;1.40;;;19.50;97.50;;;;;;5116838;27;20061;-90
2022/09/15 11:39:59;;;;;;;8.00;1.42;;;19.40;99.90;;;;;;5098878;27;20050;-90
2022/09/15 11:42:58;;;;;;;6.80;1.30;;;19.40;99.90;;;;;;5099092;27;20067;-91
2022/09/15 11:45:27;;;;;;;5.93;1.20;;;19.40;99.90;;;;;;5117093;27;20401;-91
2022/09/15 11:47:58;;;;;;;6.55;1.30;;;19.40;99.90;;;;;;5116388;27;20487;-90
2022/09/15 11:50:33;;;;;;;6.70;1.48;;;19.40;99.90;;;;;;5116904;27;20399;-91
2022/09/15 11:53:25;;;;;;;7.65;1.45;;;19.40;99.90;;;;;;5104254;27;20499;-91
2022/09/15 11:56:06;;;;;;;7.57;1.33;;;19.40;99.90;;;;;;5135350;27;20039;-90
2022/09/15 11:58:43;;;;;;;6.63;1.48;;;19.30;99.90;;;;;;5154965;27;20043;-91
2022/09/15 12:01:18;;;;;;;6.22;1.48;;;19.30;99.90;;;;;;5136352;27;20521;-90
2022/09/15 12:03:58;;;;;;;6.07;1.20;;;19.20;99.90;;;;;;5155261;27;20043;-91
2022/09/15 12:06:47;;;;;;;6.90;1.40;;;19.20;99.90;;;;;;5136452;27;20039;-90
2022/09/15 12:09:15;;;;;;;7.80;1.38;;;19.10;99.90;;;;;;5155023;27;20559;-91
2022/09/15 12:11:45;;;;;;;6.65;1.35;;;19.10;99.90;;;;;;5118608;27;20031;-90
2022/09/15 12:14:33;;;;;;;6.78;1.40;;;19.20;99.90;;;;;;5135802;27;20050;-91
2022/09/15 12:16:59;;;;;;;5.75;1.50;;;19.30;99.90;;;;;;5135775;27;20095;-91
2022/09/15 12:19:32;;;;;;;6.00;1.27;;;19.50;99.90;;;;;;5118992;27;20046;-91
2022/09/15 12:22:22;;;;;;;6.93;1.60;;;19.80;99.90;;;;;;5118961;27;20079;-90
2022/09/15 12:24:51;;;;;;;7.90;1.55;;;20.10;99.90;;;;;;5135950;27;20499;-90
2022/09/15 12:27:19;;;;;;;6.63;1.58;;;20.30;99.90;;;;;;5118306;27;20053;-91
2022/09/15 12:29:49;;;;;;;6.18;1.50;;;20.60;99.90;;;;;;5114948;27;20027;-91
2022/09/15 12:32:19;;;;;;;7.75;1.50;;;20.70;98.40;;;;;;5124531;27;20381;-90
2022/09/15 12:34:59;;;;;;;6.80;1.27;;;20.50;97.60;;;;;;5124445;27;20544;-91
2022/09/15 12:37:35;;;;;;;4.60;1.27;;;20.40;97.40;;;;;;5123609;27;20034;-90
2022/09/15 12:40:01;;;;;;;6.32;1.20;;;20.30;97.80;;;;;;5127772;27;20078;-91
2022/09/15 12:42:30;;;;;;;10.20;1.58;;;20.20;97.70;;;;;;5123539;27;20100;-89
2022/09/15 12:44:58;;;;;;;4.95;1.10;;;20.10;97.70;;;;;;5123436;27;20030;-90
2022/09/15 12:47:30;;;;;;;5.10;0.98;;;20.00;95.20;;;;;;5118133;27;20083;-90
2022/09/15 12:50:04;;;;;;;6.93;1.17;;;19.90;95.80;;;;;;5128145;27;20107;-91
2022/09/15 12:52:30;;;;;;;6.53;1.27;;;19.80;96.20;;;;;;5119404;27;20117;-91
2022/09/15 12:55:02;;;;;;;7.97;1.20;;;19.70;95.80;;;;;;5100281;27;20061;-91
2022/09/15 12:57:35;;;;;;;5.20;1.00;;;19.70;96.30;;;;;;5118945;27;20042;-90
2022/09/15 13:00:19;;;;;;;5.30;1.10;;;19.50;96.20;;;;;;5125828;27;20156;-91
2022/09/15 13:02:47;;;;;;;5.07;1.00;;;19.70;99.90;;;;;;5123208;27;20059;-90
2022/09/15 13:05:13;;;;;;;4.25;0.93;;;20.00;99.40;;;;;;5105798;27;20489;-90
2022/09/15 13:07:56;;;;;;;4.28;0.90;;;20.00;95.40;;;;;;5123894;27;20031;-90